Time;durP1;ratioP1;P1;durP2;ratioP2;P2;SDS_P1;SDS_P2;PMS_P1;PMS_P2;Temp;Humidity;BMP_temperature;BMP_pressure;BME280_temperature;BME280_humidity;BME280_pressure;Samples;Min_cycle;Max_cycle;Signal;HPM_P1;HPM_P2
2021/06/09 04:02:09;;;;;;;53.23;46.53;;;17.90;99.90;;;;;;5193265;23;20517;-64
2021/06/09 04:04:37;;;;;;;57.37;51.00;;;17.90;99.90;;;;;;4977723;28;20454;-63
2021/06/09 04:07:07;;;;;;;65.40;50.17;;;18.00;99.90;;;;;;4978238;28;20463;-64
2021/06/09 04:09:34;;;;;;;57.03;50.70;;;17.80;99.90;;;;;;4978396;28;21000;-64
2021/06/09 04:12:03;;;;;;;65.73;51.93;;;17.80;99.90;;;;;;4989652;28;20490;-65
2021/06/09 04:14:33;;;;;;;57.97;50.40;;;17.80;99.90;;;;;;4977299;28;20470;-63
2021/06/09 04:17:02;;;;;;;56.53;50.47;;;17.80;99.90;;;;;;4977632;28;20450;-62
2021/06/09 04:19:30;;;;;;;54.33;48.80;;;17.80;99.90;;;;;;4977539;28;20937;-63
2021/06/09 04:21:56;;;;;;;49.77;44.80;;;17.90;99.90;;;;;;4977444;28;20612;-65
2021/06/09 04:24:23;;;;;;;50.47;45.00;;;17.90;99.90;;;;;;4977343;28;20454;-63
2021/06/09 04:26:52;;;;;;;52.27;46.70;;;17.90;99.90;;;;;;4978223;28;20481;-64
2021/06/09 04:29:20;;;;;;;51.20;46.00;;;18.00;99.90;;;;;;4976867;28;20486;-63
2021/06/09 04:31:47;;;;;;;50.33;45.40;;;18.10;99.90;;;;;;4977834;28;20501;-63
2021/06/09 04:34:14;;;;;;;51.17;46.07;;;18.10;99.90;;;;;;4977679;28;20458;-63
2021/06/09 04:36:42;;;;;;;50.57;45.67;;;18.10;99.90;;;;;;4977242;28;20459;-63
2021/06/09 04:39:10;;;;;;;48.33;43.43;;;18.20;99.90;;;;;;4977260;28;20537;-63
2021/06/09 04:41:37;;;;;;;48.13;43.40;;;18.20;99.90;;;;;;4977298;28;20839;-63
2021/06/09 04:44:03;;;;;;;49.17;44.17;;;18.30;99.90;;;;;;4977312;28;20508;-64
2021/06/09 04:46:30;;;;;;;48.10;43.27;;;18.40;99.90;;;;;;4977150;28;20796;-64
2021/06/09 04:48:58;;;;;;;48.13;43.30;;;18.30;99.90;;;;;;4976684;28;20878;-64
2021/06/09 04:51:29;;;;;;;50.57;45.17;;;18.30;99.90;;;;;;4977057;28;20474;-65
2021/06/09 04:53:57;;;;;;;54.33;48.50;;;18.20;99.90;;;;;;4977288;28;20443;-63
2021/06/09 04:56:23;;;;;;;50.73;45.77;;;18.10;99.90;;;;;;4977672;28;20462;-64
2021/06/09 04:58:49;;;;;;;49.70;44.80;;;18.10;99.90;;;;;;4979409;28;20470;-64
2021/06/09 05:01:16;;;;;;;47.77;42.80;;;18.20;99.90;;;;;;4978975;28;20490;-63
2021/06/09 05:03:42;;;;;;;44.10;39.37;;;18.30;99.90;;;;;;4978951;28;20620;-64
2021/06/09 05:06:08;;;;;;;50.40;45.20;;;18.40;99.90;;;;;;4977802;28;20462;-64
2021/06/09 05:08:35;;;;;;;49.20;44.17;;;18.30;99.90;;;;;;4976535;28;20466;-63
2021/06/09 05:11:08;;;;;;;50.10;44.97;;;18.30;99.90;;;;;;4976432;28;20472;-62
2021/06/09 05:13:36;;;;;;;52.17;46.77;;;18.20;99.90;;;;;;4976571;28;20497;-62
2021/06/09 05:16:07;;;;;;;51.57;46.30;;;18.20;99.90;;;;;;4976518;28;20450;-63
2021/06/09 05:18:38;;;;;;;50.37;45.37;;;18.20;99.90;;;;;;4976542;28;20435;-63
2021/06/09 05:21:06;;;;;;;48.47;43.40;;;18.30;99.90;;;;;;4977890;28;20474;-61
2021/06/09 05:23:36;;;;;;;50.90;45.80;;;18.30;99.90;;;;;;4975236;28;20447;-63
2021/06/09 05:26:05;;;;;;;51.97;46.67;;;18.40;99.90;;;;;;4975612;28;20575;-62
2021/06/09 05:28:36;;;;;;;48.13;43.13;;;18.30;99.90;;;;;;4975920;28;20504;-62
2021/06/09 05:31:03;;;;;;;43.67;39.47;;;18.40;99.90;;;;;;4976124;28;20475;-63
2021/06/09 05:33:31;;;;;;;47.97;43.07;;;18.50;99.90;;;;;;4976422;28;20918;-63
2021/06/09 05:35:58;;;;;;;43.30;39.10;;;18.60;99.90;;;;;;4977557;28;20446;-63
2021/06/09 05:38:25;;;;;;;46.80;41.90;;;18.70;99.90;;;;;;4976851;28;20458;-63
2021/06/09 05:40:56;;;;;;;44.70;40.30;;;18.70;99.90;;;;;;4978720;28;21003;-62
2021/06/09 05:43:26;;;;;;;48.73;43.70;;;18.80;99.90;;;;;;4989806;28;20796;-61
2021/06/09 05:45:53;;;;;;;45.63;40.93;;;18.70;99.90;;;;;;4976157;28;20838;-62
2021/06/09 05:48:19;;;;;;;45.60;41.10;;;19.00;99.90;;;;;;4976362;28;20458;-63
2021/06/09 05:50:50;;;;;;;46.77;42.07;;;19.10;99.90;;;;;;4975808;28;20541;-63
2021/06/09 05:53:17;;;;;;;43.70;39.70;;;19.10;99.90;;;;;;4979861;28;20470;-62
2021/06/09 05:55:46;;;;;;;42.27;38.27;;;19.30;99.90;;;;;;4987934;28;20439;-63
2021/06/09 05:58:15;;;;;;;42.73;38.87;;;19.40;99.90;;;;;;4976047;28;20459;-63
2021/06/09 06:00:44;;;;;;;41.77;38.10;;;19.30;99.90;;;;;;4975764;28;20556;-63
2021/06/09 06:03:10;;;;;;;41.17;37.50;;;19.50;99.90;;;;;;4975529;28;20518;-63
2021/06/09 06:05:40;;;;;;;43.90;39.70;;;19.60;99.90;;;;;;4975789;28;20444;-63
2021/06/09 06:08:06;;;;;;;42.50;38.57;;;19.60;99.90;;;;;;4975928;28;20446;-63
2021/06/09 06:10:33;;;;;;;40.97;37.40;;;19.80;99.90;;;;;;4975374;28;20487;-62
2021/06/09 06:12:59;;;;;;;41.47;37.47;;;19.90;99.90;;;;;;4975883;28;20992;-62
2021/06/09 06:15:26;;;;;;;41.37;37.50;;;20.10;99.90;;;;;;4975486;28;20967;-63
2021/06/09 06:17:54;;;;;;;42.40;38.53;;;20.10;99.90;;;;;;4982160;28;20465;-64
2021/06/09 06:20:22;;;;;;;36.97;33.77;;;20.10;99.90;;;;;;4976548;28;20440;-62
2021/06/09 06:22:50;;;;;;;33.97;31.17;;;20.20;99.90;;;;;;4975615;28;20467;-63
2021/06/09 06:25:18;;;;;;;33.20;30.60;;;20.30;99.90;;;;;;4975536;28;20454;-64
2021/06/09 06:27:45;;;;;;;31.63;29.13;;;20.40;99.90;;;;;;4975670;28;20439;-63
2021/06/09 06:30:13;;;;;;;28.13;25.67;;;20.60;99.90;;;;;;4975317;28;20478;-63
2021/06/09 06:32:41;;;;;;;26.30;24.23;;;20.70;99.90;;;;;;4975707;28;20455;-63
2021/06/09 06:35:12;;;;;;;27.67;25.47;;;20.70;99.90;;;;;;4975697;28;20867;-62
2021/06/09 06:37:39;;;;;;;28.67;26.40;;;20.80;99.90;;;;;;4977443;28;20498;-62
2021/06/09 06:40:07;;;;;;;28.07;25.83;;;20.70;99.90;;;;;;4979485;28;20964;-63
2021/06/09 06:42:33;;;;;;;29.07;26.57;;;20.90;99.90;;;;;;4979280;28;20482;-63
2021/06/09 06:45:00;;;;;;;27.33;25.10;;;21.00;99.90;;;;;;4979443;28;20518;-62
2021/06/09 06:47:28;;;;;;;25.83;23.83;;;21.40;99.90;;;;;;4979621;28;20442;-62
2021/06/09 06:49:55;;;;;;;26.50;24.50;;;21.80;99.90;;;;;;4979472;28;20544;-62
2021/06/09 06:52:27;;;;;;;25.30;23.40;;;21.80;99.90;;;;;;4979412;28;20478;-63
2021/06/09 06:54:58;;;;;;;27.70;25.50;;;22.10;99.90;;;;;;4979385;28;20473;-62
2021/06/09 06:57:25;;;;;;;28.13;25.93;;;22.10;99.90;;;;;;4979030;28;20800;-63
2021/06/09 06:59:52;;;;;;;27.53;25.40;;;21.70;99.90;;;;;;4979188;28;20457;-62
2021/06/09 07:02:19;;;;;;;25.63;23.63;;;22.00;99.90;;;;;;4978709;28;20482;-62
2021/06/09 07:04:45;;;;;;;25.27;22.93;;;22.00;99.90;;;;;;4979304;28;20799;-62
2021/06/09 07:07:12;;;;;;;19.87;18.27;;;23.00;99.90;;;;;;4978982;28;20458;-63
2021/06/09 07:09:40;;;;;;;22.57;20.60;;;23.70;99.90;;;;;;4979303;28;21036;-63
2021/06/09 07:12:07;;;;;;;22.37;20.33;;;24.40;99.90;;;;;;4979575;28;20475;-63
2021/06/09 07:14:36;;;;;;;21.57;19.97;;;24.40;99.90;;;;;;4983659;28;20458;-63
2021/06/09 07:17:03;;;;;;;22.90;21.20;;;24.60;99.90;;;;;;4990247;28;20462;-63
2021/06/09 07:19:29;;;;;;;23.37;21.53;;;24.90;99.90;;;;;;4989110;28;20913;-63
2021/06/09 07:21:56;;;;;;;23.37;21.67;;;24.70;99.90;;;;;;4978553;28;20499;-64
2021/06/09 07:24:22;;;;;;;23.77;22.07;;;25.20;99.90;;;;;;4980230;28;20825;-64
2021/06/09 07:26:52;;;;;;;25.47;23.60;;;25.10;99.90;;;;;;4979803;28;20937;-64
2021/06/09 07:29:22;;;;;;;25.00;23.00;;;24.50;99.90;;;;;;4980012;28;20536;-63
2021/06/09 07:31:48;;;;;;;23.10;21.27;;;24.20;99.90;;;;;;4979806;28;20479;-65
2021/06/09 07:34:15;;;;;;;23.70;22.00;;;24.50;99.90;;;;;;4979050;28;20439;-63
2021/06/09 07:36:46;;;;;;;25.10;23.13;;;24.40;99.90;;;;;;4978906;28;20450;-64
2021/06/09 07:39:20;;;;;;;22.50;20.53;;;24.60;99.90;;;;;;4978426;28;20530;-63
2021/06/09 07:41:47;;;;;;;23.47;21.67;;;25.40;99.90;;;;;;4978484;28;20478;-63
2021/06/09 07:44:17;;;;;;;23.77;22.03;;;26.00;99.90;;;;;;4978165;28;20535;-63
2021/06/09 07:46:44;;;;;;;25.20;23.30;;;25.90;99.90;;;;;;4978036;28;20494;-63
2021/06/09 07:49:12;;;;;;;27.27;25.20;;;26.00;99.90;;;;;;4976903;28;20569;-63
2021/06/09 07:51:41;;;;;;;28.90;26.80;;;25.40;99.90;;;;;;4978149;28;20510;-63
2021/06/09 07:54:09;;;;;;;34.00;31.33;;;25.10;99.90;;;;;;4978835;28;20443;-65
2021/06/09 07:56:37;;;;;;;35.50;32.57;;;24.80;99.90;;;;;;4977676;28;20455;-63
2021/06/09 07:59:05;;;;;;;36.80;33.80;;;24.30;99.90;;;;;;4978082;28;20458;-63
2021/06/09 08:01:34;;;;;;;38.37;34.97;;;23.80;99.90;;;;;;4977391;28;20992;-65
2021/06/09 08:04:01;;;;;;;37.70;34.40;;;23.60;99.90;;;;;;4977889;28;20498;-62
2021/06/09 08:06:28;;;;;;;38.53;35.10;;;23.30;99.90;;;;;;4977698;28;20459;-63
2021/06/09 08:08:54;;;;;;;40.40;36.93;;;23.00;99.90;;;;;;4977587;28;20458;-63
2021/06/09 08:11:21;;;;;;;38.37;35.03;;;22.70;99.90;;;;;;4977325;28;20479;-64
2021/06/09 08:13:48;;;;;;;39.17;35.73;;;22.40;99.90;;;;;;4978055;28;20447;-64
2021/06/09 08:16:17;;;;;;;40.13;36.73;;;22.40;99.90;;;;;;4977945;28;20498;-64
2021/06/09 08:18:46;;;;;;;40.23;36.73;;;22.40;99.90;;;;;;4989854;28;20489;-64
2021/06/09 08:21:14;;;;;;;40.30;36.97;;;22.30;99.90;;;;;;4977603;28;20567;-63
2021/06/09 08:23:42;;;;;;;39.63;36.33;;;22.40;99.90;;;;;;4977781;28;20454;-64
2021/06/09 08:26:09;;;;;;;35.60;32.40;;;22.70;99.90;;;;;;4977860;28;20454;-62
2021/06/09 08:28:36;;;;;;;34.77;31.90;;;23.10;99.90;;;;;;4977486;28;20509;-62
2021/06/09 08:31:04;;;;;;;34.93;31.87;;;23.40;99.90;;;;;;4977130;28;20538;-62
2021/06/09 08:33:31;;;;;;;38.03;34.80;;;23.50;99.90;;;;;;4978007;28;20522;-63
2021/06/09 08:35:59;;;;;;;36.63;33.43;;;23.50;99.90;;;;;;4977324;28;20446;-63
2021/06/09 08:38:25;;;;;;;33.40;30.70;;;24.10;99.90;;;;;;4977611;28;20454;-63
2021/06/09 08:40:51;;;;;;;31.90;29.50;;;24.90;99.90;;;;;;4977138;28;20893;-62
2021/06/09 08:43:21;;;;;;;33.03;30.43;;;25.80;99.90;;;;;;4976774;28;20513;-63
2021/06/09 08:45:48;;;;;;;26.93;24.93;;;26.70;99.90;;;;;;4977115;28;20461;-62
2021/06/09 08:48:14;;;;;;;29.00;26.80;;;27.90;99.90;;;;;;4977270;28;20501;-62
2021/06/09 08:50:41;;;;;;;27.10;25.10;;;28.70;99.90;;;;;;4976779;28;20482;-62
2021/06/09 08:53:11;;;;;;;29.47;27.37;;;29.20;99.90;;;;;;4976911;28;20466;-62
2021/06/09 08:55:38;;;;;;;31.43;28.83;;;28.80;99.90;;;;;;4977152;28;20817;-63
2021/06/09 08:58:06;;;;;;;30.80;28.53;;;29.30;99.90;;;;;;4976959;28;20545;-63
2021/06/09 09:00:33;;;;;;;30.50;28.20;;;29.60;99.90;;;;;;4976830;28;20451;-63
2021/06/09 09:03:01;;;;;;;29.53;27.33;;;29.80;99.90;;;;;;4976949;28;20443;-62
2021/06/09 09:05:28;;;;;;;30.47;28.27;;;29.70;99.90;;;;;;4976646;28;20972;-62
2021/06/09 09:07:57;;;;;;;29.20;26.73;;;29.70;99.90;;;;;;4988493;28;20447;-63
2021/06/09 09:10:25;;;;;;;29.77;27.33;;;30.00;99.90;;;;;;4978536;28;20467;-64
2021/06/09 09:12:52;;;;;;;31.07;28.77;;;30.20;99.90;;;;;;4977485;28;20474;-63
2021/06/09 09:15:18;;;;;;;29.43;27.20;;;29.60;99.90;;;;;;4976691;28;20981;-63
2021/06/09 09:17:55;;;;;;;29.37;27.20;;;29.50;99.90;;;;;;4976486;28;20509;-63
2021/06/09 09:20:25;;;;;;;29.47;27.27;;;30.40;99.90;;;;;;4976494;28;20443;-63
2021/06/09 09:22:52;;;;;;;28.47;26.27;;;31.00;99.90;;;;;;4976798;28;20467;-63
2021/06/09 09:25:20;;;;;;;27.97;25.90;;;31.50;99.90;;;;;;4976469;28;20792;-64
2021/06/09 09:27:57;;;;;;;29.77;27.43;;;31.90;99.90;;;;;;4976254;28;20455;-62
2021/06/09 09:30:24;;;;;;;28.03;26.13;;;32.30;99.90;;;;;;4976304;28;20462;-63
2021/06/09 09:33:00;;;;;;;28.70;26.03;;;32.40;99.90;;;;;;4976902;28;20930;-63
2021/06/09 09:35:27;;;;;;;25.67;23.97;;;32.80;99.90;;;;;;4976160;28;20485;-64
2021/06/09 09:38:12;;;;;;;27.10;25.10;;;33.20;99.90;;;;;;4976041;28;20458;-64
2021/06/09 09:40:39;;;;;;;29.13;27.07;;;33.70;99.90;;;;;;4977033;28;20474;-63
2021/06/09 09:43:06;;;;;;;30.37;28.00;;;32.30;99.90;;;;;;4976165;28;20463;-63
2021/06/09 09:45:34;;;;;;;29.43;27.43;;;31.50;99.90;;;;;;4976049;28;20485;-64
2021/06/09 09:48:13;;;;;;;29.90;27.40;;;31.70;99.90;;;;;;4976387;28;20459;-62
2021/06/09 09:50:42;;;;;;;30.33;28.13;;;32.30;99.90;;;;;;4983533;28;20486;-63
2021/06/09 09:53:21;;;;;;;28.40;26.40;;;32.30;99.90;;;;;;4975899;28;20964;-63
2021/06/09 09:55:59;;;;;;;26.97;24.60;;;32.30;99.90;;;;;;4976203;28;20478;-64
2021/06/09 09:58:28;;;;;;;28.30;26.10;;;32.90;99.90;;;;;;4975994;28;20475;-63
2021/06/09 10:01:08;;;;;;;27.33;25.17;;;32.10;99.10;;;;;;4976730;28;21004;-63
2021/06/09 10:03:37;;;;;;;25.53;23.50;;;32.20;98.70;;;;;;4975626;28;20458;-63
2021/06/09 10:06:20;;;;;;;26.40;24.50;;;32.40;99.70;;;;;;4976423;28;20492;-66
2021/06/09 10:08:47;;;;;;;27.67;25.70;;;32.50;99.00;;;;;;4976491;28;20443;-62
2021/06/09 10:11:13;;;;;;;25.30;23.23;;;32.10;97.70;;;;;;4975614;28;20489;-62
2021/06/09 10:13:41;;;;;;;24.80;23.00;;;31.80;98.20;;;;;;4975227;28;20529;-63
2021/06/09 10:16:32;;;;;;;25.60;23.70;;;31.30;98.20;;;;;;4975223;28;20463;-63
2021/06/09 10:19:05;;;;;;;24.07;22.13;;;30.90;99.90;;;;;;4975824;28;20443;-62
2021/06/09 10:21:32;;;;;;;21.90;20.20;;;30.80;99.90;;;;;;4975533;28;20481;-63
2021/06/09 10:24:00;;;;;;;22.00;20.10;;;31.40;99.90;;;;;;4976136;28;20478;-64
2021/06/09 10:26:27;;;;;;;20.47;19.00;;;32.10;99.90;;;;;;4975441;28;20458;-62
2021/06/09 10:29:11;;;;;;;21.20;19.70;;;32.60;98.90;;;;;;4984492;28;20482;-63
2021/06/09 10:31:41;;;;;;;21.10;19.37;;;32.90;99.00;;;;;;4986977;28;20470;-63
2021/06/09 10:34:07;;;;;;;19.63;18.27;;;32.40;97.40;;;;;;4978463;28;20455;-63
2021/06/09 10:36:35;;;;;;;20.97;19.10;;;32.30;96.20;;;;;;4975589;28;20458;-63
2021/06/09 10:39:03;;;;;;;22.50;21.00;;;32.30;99.00;;;;;;4975601;28;20465;-62
2021/06/09 10:41:30;;;;;;;21.30;19.53;;;32.30;97.40;;;;;;4975097;28;20482;-63
2021/06/09 10:44:02;;;;;;;19.13;17.63;;;32.10;96.70;;;;;;4975256;28;20458;-64
2021/06/09 10:46:30;;;;;;;24.97;22.90;;;32.40;98.10;;;;;;4975720;28;20460;-63
2021/06/09 10:49:01;;;;;;;25.53;20.67;;;33.10;98.00;;;;;;4975725;28;20458;-64
2021/06/09 10:51:28;;;;;;;23.50;21.90;;;32.50;98.70;;;;;;4975760;28;20537;-62
2021/06/09 10:53:57;;;;;;;24.13;22.20;;;33.10;97.00;;;;;;4975644;28;20573;-62
2021/06/09 10:56:24;;;;;;;24.40;22.57;;;32.80;97.50;;;;;;4975850;28;20459;-63
2021/06/09 10:58:50;;;;;;;19.23;17.83;;;33.50;95.30;;;;;;4975213;28;20465;-63
2021/06/09 11:01:21;;;;;;;20.83;19.27;;;33.80;97.90;;;;;;4975700;28;20842;-63
2021/06/09 11:03:50;;;;;;;22.07;20.13;;;33.00;94.80;;;;;;4977069;28;20514;-63
2021/06/09 11:06:16;;;;;;;22.47;20.27;;;32.60;96.10;;;;;;4975361;28;20442;-63
2021/06/09 11:08:43;;;;;;;22.47;20.67;;;32.80;95.00;;;;;;4975101;28;20467;-63
2021/06/09 11:11:21;;;;;;;22.20;20.60;;;33.10;93.70;;;;;;4974872;28;20489;-65
2021/06/09 11:13:48;;;;;;;20.13;18.63;;;33.00;93.30;;;;;;4975202;28;20454;-65
2021/06/09 11:16:16;;;;;;;20.57;19.17;;;33.30;94.50;;;;;;4977299;28;20458;-64
2021/06/09 11:18:45;;;;;;;19.17;17.77;;;32.90;93.60;;;;;;4977010;28;20461;-65
2021/06/09 11:21:15;;;;;;;17.13;15.83;;;32.20;95.90;;;;;;4975405;28;20494;-65
2021/06/09 11:23:43;;;;;;;16.57;15.10;;;31.60;95.40;;;;;;4974932;28;20941;-66
2021/06/09 11:26:24;;;;;;;14.93;13.83;;;31.00;94.20;;;;;;4979729;28;20505;-67
2021/06/09 11:28:50;;;;;;;16.13;15.10;;;30.40;94.10;;;;;;4982590;28;20461;-65
2021/06/09 11:31:23;;;;;;;15.40;14.20;;;29.70;96.50;;;;;;4978722;28;20891;-64
2021/06/09 11:33:56;;;;;;;15.77;14.57;;;29.40;96.20;;;;;;4978721;28;20445;-64
2021/06/09 11:36:34;;;;;;;16.00;14.77;;;29.00;98.60;;;;;;4980844;28;20460;-64
2021/06/09 11:39:04;;;;;;;17.10;15.90;;;28.80;99.70;;;;;;4978924;28;20442;-64
2021/06/09 11:41:37;;;;;;;16.80;15.60;;;28.50;99.90;;;;;;4978295;28;20496;-64
2021/06/09 11:44:04;;;;;;;18.13;16.70;;;28.30;99.90;;;;;;4978025;28;20930;-63
2021/06/09 11:46:32;;;;;;;16.37;14.93;;;27.90;99.90;;;;;;4978304;28;20968;-63
2021/06/09 11:49:00;;;;;;;17.33;16.10;;;27.90;99.90;;;;;;4978423;28;20861;-62
2021/06/09 11:51:31;;;;;;;15.60;14.40;;;27.70;99.90;;;;;;4977740;28;20989;-63
2021/06/09 11:54:00;;;;;;;17.63;16.40;;;27.60;99.90;;;;;;4978171;28;20906;-63
2021/06/09 11:56:28;;;;;;;17.67;16.47;;;27.20;99.90;;;;;;4978108;28;20969;-63
2021/06/09 11:58:56;;;;;;;17.43;16.07;;;27.00;99.90;;;;;;4978223;28;20652;-63
2021/06/09 12:01:24;;;;;;;18.80;17.40;;;27.00;99.90;;;;;;4977554;28;20530;-63
2021/06/09 12:04:16;;;;;;;18.13;16.50;;;26.50;99.90;;;;;;4977480;28;20935;-62
2021/06/09 12:06:52;;;;;;;18.20;16.90;;;26.50;99.90;;;;;;4963683;28;20462;-63
2021/06/09 12:09:19;;;;;;;19.90;18.40;;;26.70;99.90;;;;;;4977748;28;20473;-62
2021/06/09 12:11:47;;;;;;;17.53;16.17;;;27.00;99.90;;;;;;4977641;28;20474;-63
2021/06/09 12:14:25;;;;;;;18.47;16.97;;;27.60;99.90;;;;;;4977439;28;20462;-62
2021/06/09 12:16:54;;;;;;;17.70;16.50;;;28.20;99.90;;;;;;4977658;28;20891;-63
2021/06/09 12:19:32;;;;;;;17.53;16.30;;;28.60;99.90;;;;;;4977664;28;20466;-63
2021/06/09 12:22:04;;;;;;;16.97;15.77;;;29.10;99.90;;;;;;4977662;28;20486;-63
2021/06/09 12:24:30;;;;;;;18.60;16.97;;;29.60;99.90;;;;;;4977997;28;20462;-63
2021/06/09 12:27:01;;;;;;;17.73;16.53;;;29.90;99.90;;;;;;4978274;28;20450;-63
2021/06/09 12:29:30;;;;;;;17.20;15.90;;;30.00;99.90;;;;;;4977436;28;20439;-64
2021/06/09 12:31:57;;;;;;;14.60;13.70;;;30.20;99.90;;;;;;4977201;28;20506;-63
2021/06/09 12:34:33;;;;;;;14.67;13.77;;;30.50;99.90;;;;;;4977191;28;20991;-63
2021/06/09 12:37:07;;;;;;;14.60;13.60;;;31.10;99.70;;;;;;4977265;28;20497;-64
2021/06/09 12:39:35;;;;;;;14.70;13.60;;;30.60;98.60;;;;;;4979349;28;20457;-63
2021/06/09 12:42:08;;;;;;;13.00;12.10;;;30.40;98.30;;;;;;4979158;28;20485;-63
2021/06/09 12:44:40;;;;;;;15.20;14.20;;;30.30;98.60;;;;;;4977627;28;20478;-63
2021/06/09 12:47:07;;;;;;;13.67;12.70;;;30.60;98.50;;;;;;4978963;28;20457;-63
2021/06/09 12:49:33;;;;;;;14.07;13.07;;;30.40;95.80;;;;;;4978185;28;20477;-63
2021/06/09 12:52:10;;;;;;;12.53;11.40;;;30.10;97.20;;;;;;4978294;28;20509;-62
2021/06/09 12:54:49;;;;;;;11.30;10.47;;;29.50;97.10;;;;;;4977463;28;20443;-63
2021/06/09 12:57:15;;;;;;;8.33;7.73;;;28.70;99.10;;;;;;4977266;28;20807;-62
2021/06/09 12:59:41;;;;;;;7.00;6.60;;;27.60;99.00;;;;;;4977442;28;20461;-63
2021/06/09 13:02:08;;;;;;;8.67;7.73;;;26.80;99.40;;;;;;4976577;28;20516;-63
2021/06/09 13:04:40;;;;;;;8.30;7.80;;;26.10;99.90;;;;;;4976827;28;20454;-63
2021/06/09 13:07:09;;;;;;;7.77;7.17;;;25.70;99.90;;;;;;4976941;28;20478;-64
2021/06/09 13:09:36;;;;;;;7.20;6.57;;;25.50;99.90;;;;;;4976832;28;20462;-62
2021/06/09 13:12:04;;;;;;;7.67;7.07;;;25.60;99.90;;;;;;4976535;28;20481;-63
2021/06/09 13:14:37;;;;;;;8.40;7.80;;;25.50;99.90;;;;;;4976327;28;20461;-63
2021/06/09 13:17:06;;;;;;;8.13;7.53;;;25.50;99.90;;;;;;4976462;28;20526;-63
2021/06/09 13:19:33;;;;;;;7.40;6.80;;;25.50;99.90;;;;;;4976309;28;20458;-63
2021/06/09 13:22:01;;;;;;;8.80;8.10;;;25.70;99.90;;;;;;4976343;28;20474;-62
2021/06/09 13:24:33;;;;;;;8.60;7.83;;;25.70;99.90;;;;;;4976750;28;20458;-66
2021/06/09 13:27:03;;;;;;;8.10;7.30;;;25.70;99.90;;;;;;4976317;28;20439;-62
2021/06/09 13:29:35;;;;;;;8.80;8.23;;;25.30;99.90;;;;;;4976863;28;20443;-62
2021/06/09 13:32:15;;;;;;;8.60;8.00;;;25.20;99.90;;;;;;4977470;28;20470;-63
2021/06/09 13:34:44;;;;;;;10.37;9.57;;;25.00;99.90;;;;;;4976695;28;20478;-62
2021/06/09 13:37:15;;;;;;;10.00;9.10;;;24.70;99.90;;;;;;4976920;28;20945;-63
2021/06/09 13:39:45;;;;;;;9.57;8.77;;;24.50;99.90;;;;;;4976548;28;20462;-64
2021/06/09 13:42:12;;;;;;;9.30;8.70;;;24.50;99.90;;;;;;4976879;28;20471;-64
2021/06/09 13:44:40;;;;;;;9.87;8.87;;;24.40;99.90;;;;;;4981009;28;20447;-63
2021/06/09 13:47:08;;;;;;;9.40;8.70;;;24.50;99.90;;;;;;4982622;28;20515;-64
2021/06/09 13:49:36;;;;;;;9.80;9.17;;;24.10;99.90;;;;;;4980103;28;20927;-63
2021/06/09 13:52:05;;;;;;;9.57;8.90;;;24.10;99.90;;;;;;4975725;28;20486;-64
2021/06/09 13:54:33;;;;;;;8.80;8.10;;;24.20;99.90;;;;;;4975948;28;20463;-62
2021/06/09 13:57:13;;;;;;;12.20;11.20;;;24.20;99.90;;;;;;4975795;28;20455;-63
2021/06/09 13:59:48;;;;;;;15.97;14.57;;;24.10;99.90;;;;;;4975538;28;20914;-62
2021/06/09 14:02:20;;;;;;;11.33;8.90;;;24.00;99.90;;;;;;4975580;28;20537;-63
2021/06/09 14:04:46;;;;;;;9.03;8.33;;;23.60;99.90;;;;;;4975790;28;20443;-63
2021/06/09 14:07:18;;;;;;;8.63;7.83;;;23.90;99.90;;;;;;4976502;28;20461;-63
2021/06/09 14:09:50;;;;;;;7.83;7.33;;;24.00;99.90;;;;;;4976211;28;20802;-62
2021/06/09 14:12:18;;;;;;;8.40;7.80;;;23.90;99.90;;;;;;4975949;28;20478;-62
2021/06/09 14:14:44;;;;;;;7.83;7.33;;;23.80;99.90;;;;;;4975560;28;20465;-63
2021/06/09 14:17:14;;;;;;;7.97;7.47;;;23.80;99.90;;;;;;4976445;28;20973;-64
2021/06/09 14:19:43;;;;;;;7.00;6.50;;;23.70;99.90;;;;;;4976210;28;20439;-63
2021/06/09 14:22:21;;;;;;;7.70;7.10;;;23.90;99.90;;;;;;4977529;28;20834;-64
2021/06/09 14:24:48;;;;;;;6.97;6.13;;;23.90;99.90;;;;;;4976420;28;20516;-63
2021/06/09 14:27:14;;;;;;;7.40;6.90;;;23.80;99.90;;;;;;4976239;28;20454;-64
2021/06/09 14:29:41;;;;;;;5.77;5.47;;;23.70;99.90;;;;;;4975154;28;20964;-63
2021/06/09 14:32:11;;;;;;;6.33;5.93;;;23.70;99.90;;;;;;4975389;28;20479;-64
2021/06/09 14:34:39;;;;;;;6.37;5.77;;;23.80;99.90;;;;;;4976176;28;20501;-63
2021/06/09 14:37:07;;;;;;;6.80;6.30;;;23.50;99.90;;;;;;4975214;28;20517;-64
2021/06/09 14:39:34;;;;;;;6.07;5.67;;;23.50;99.90;;;;;;4975366;28;20506;-62
2021/06/09 14:42:00;;;;;;;7.53;5.87;;;23.60;99.90;;;;;;4974826;28;20842;-62
2021/06/09 14:44:35;;;;;;;6.60;6.20;;;23.80;99.90;;;;;;4975125;28;20462;-63
2021/06/09 14:47:10;;;;;;;6.20;5.70;;;23.70;99.90;;;;;;4975042;28;20438;-62
2021/06/09 14:49:38;;;;;;;7.07;6.57;;;23.70;99.90;;;;;;4975324;28;20539;-63
2021/06/09 14:52:11;;;;;;;7.40;6.77;;;23.60;99.90;;;;;;4975130;28;20548;-63
2021/06/09 14:54:39;;;;;;;7.47;6.87;;;23.70;99.90;;;;;;4975213;28;20438;-64
2021/06/09 14:57:06;;;;;;;6.77;6.17;;;23.70;99.90;;;;;;4975375;28;20446;-63
2021/06/09 14:59:45;;;;;;;6.83;6.23;;;23.60;99.90;;;;;;4977566;28;20968;-63
2021/06/09 15:02:12;;;;;;;6.80;6.40;;;23.80;99.90;;;;;;4978926;28;20493;-63
2021/06/09 15:04:39;;;;;;;6.97;6.47;;;23.80;99.90;;;;;;4979422;28;20461;-63
2021/06/09 15:07:05;;;;;;;7.20;6.80;;;23.80;99.90;;;;;;4978762;28;20458;-63
2021/06/09 15:09:32;;;;;;;8.60;6.97;;;23.90;99.90;;;;;;4978392;28;20526;-63
2021/06/09 15:11:58;;;;;;;7.23;6.80;;;23.80;99.90;;;;;;4978735;28;20522;-63
2021/06/09 15:14:24;;;;;;;8.17;7.40;;;23.90;99.90;;;;;;4979511;28;20461;-63
2021/06/09 15:16:51;;;;;;;7.80;6.97;;;23.90;99.90;;;;;;4978782;28;20460;-62
2021/06/09 15:19:18;;;;;;;12.47;11.43;;;24.00;99.90;;;;;;4978284;28;20818;-63
2021/06/09 15:21:45;;;;;;;11.23;10.40;;;24.10;99.90;;;;;;4978764;28;20478;-63
2021/06/09 15:24:11;;;;;;;14.53;12.80;;;24.20;99.90;;;;;;4978505;28;21004;-63
2021/06/09 15:26:37;;;;;;;15.13;13.63;;;24.20;99.90;;;;;;4978535;28;20455;-63
2021/06/09 15:29:07;;;;;;;14.27;13.00;;;24.30;99.90;;;;;;4978695;28;20463;-63
2021/06/09 15:31:34;;;;;;;13.40;12.30;;;24.30;99.90;;;;;;4982092;28;20521;-63
2021/06/09 15:34:01;;;;;;;12.60;11.63;;;24.40;99.90;;;;;;4990563;28;20478;-63
2021/06/09 15:36:33;;;;;;;11.20;10.40;;;24.60;99.90;;;;;;4994606;28;20478;-63
2021/06/09 15:39:00;;;;;;;12.60;11.60;;;24.70;99.90;;;;;;4991291;28;20455;-63
2021/06/09 15:41:26;;;;;;;11.10;10.23;;;24.70;99.90;;;;;;4989765;28;20543;-64
2021/06/09 15:43:53;;;;;;;12.00;11.00;;;24.80;99.90;;;;;;4978344;28;20586;-63
2021/06/09 15:46:19;;;;;;;12.70;11.60;;;24.90;99.90;;;;;;4978372;28;20484;-62
2021/06/09 15:48:45;;;;;;;11.67;10.67;;;24.90;99.90;;;;;;4979452;28;20469;-63
2021/06/09 15:51:11;;;;;;;12.23;11.20;;;24.90;99.90;;;;;;4978067;28;20989;-63
2021/06/09 15:53:39;;;;;;;10.77;9.97;;;25.10;99.90;;;;;;4978645;28;20458;-63
2021/06/09 15:56:06;;;;;;;9.43;8.63;;;25.10;99.90;;;;;;4979572;28;20443;-62
2021/06/09 15:58:33;;;;;;;10.10;9.13;;;25.20;99.90;;;;;;4978977;28;20442;-63
2021/06/09 16:00:59;;;;;;;10.20;8.70;;;25.10;99.90;;;;;;4988282;28;20485;-64
2021/06/09 16:03:25;;;;;;;9.93;9.03;;;25.00;99.90;;;;;;4988508;28;20482;-63
2021/06/09 16:05:52;;;;;;;9.20;8.43;;;25.00;99.90;;;;;;4988599;28;20455;-63
2021/06/09 16:08:18;;;;;;;9.80;9.10;;;25.00;99.90;;;;;;4989253;28;20451;-63
2021/06/09 16:10:45;;;;;;;9.20;8.60;;;24.90;99.90;;;;;;4981966;28;20492;-63
2021/06/09 16:13:12;;;;;;;11.60;9.50;;;25.00;99.90;;;;;;4978081;28;20461;-63
2021/06/09 16:15:38;;;;;;;10.53;9.77;;;25.00;99.90;;;;;;4977371;28;20458;-64
2021/06/09 16:18:04;;;;;;;11.00;10.13;;;25.00;99.90;;;;;;4977417;28;20449;-62
2021/06/09 16:20:31;;;;;;;10.10;9.30;;;24.80;99.90;;;;;;4977071;28;20447;-64
2021/06/09 16:22:57;;;;;;;10.30;9.70;;;24.80;99.90;;;;;;4978314;28;20450;-63
2021/06/09 16:25:23;;;;;;;9.93;9.23;;;24.70;99.90;;;;;;4980194;28;20948;-64
2021/06/09 16:27:51;;;;;;;10.80;10.10;;;24.40;99.90;;;;;;4977534;28;20513;-63
2021/06/09 16:30:18;;;;;;;11.00;10.20;;;24.50;99.90;;;;;;4977453;28;20549;-64
2021/06/09 16:32:45;;;;;;;13.60;12.60;;;24.50;99.90;;;;;;4977107;28;21016;-63
2021/06/09 16:35:12;;;;;;;13.93;12.70;;;24.40;99.90;;;;;;4978005;28;20818;-63
2021/06/09 16:37:40;;;;;;;12.00;11.20;;;24.40;99.90;;;;;;4979590;28;20454;-62
2021/06/09 16:40:10;;;;;;;13.53;12.63;;;24.40;99.90;;;;;;4977121;28;20840;-62